Time;durP1;ratioP1;P1;durP2;ratioP2;P2;SDS_P1;SDS_P2;PMS_P1;PMS_P2;Temp;Humidity;BMP_temperature;BMP_pressure;BME280_temperature;BME280_humidity;BME280_pressure;Samples;Min_cycle;Max_cycle;Signal;HPM_P1;HPM_P2
2023/01/29 00:00:13;;;;;;;0.40;0.40;;;;;;;;;;5087478;28;20279;-65
2023/01/29 00:02:41;;;;;;;0.30;0.30;;;;;;;;;;5059115;28;20214;-64
2023/01/29 00:05:07;;;;;;;0.30;0.30;;;;;;;;;;5087340;28;20579;-66
2023/01/29 00:07:34;;;;;;;0.30;0.30;;;;;;;;;;5075879;28;20251;-64
2023/01/29 00:10:00;;;;;;;0.30;0.30;;;;;;;;;;5087426;28;20242;-64
2023/01/29 00:12:27;;;;;;;0.40;0.40;;;;;;;;;;5075608;28;20251;-64
2023/01/29 00:14:53;;;;;;;0.30;0.30;;;;;;;;;;5087212;28;20200;-64
2023/01/29 00:17:20;;;;;;;0.30;0.30;;;;;;;;;;5075680;28;20239;-64
2023/01/29 00:19:47;;;;;;;0.30;0.30;;;;;;;;;;5086773;28;20238;-64
2023/01/29 00:22:14;;;;;;;0.30;0.30;;;;;;;;;;5075521;28;20257;-64
2023/01/29 00:24:40;;;;;;;0.30;0.30;;;;;;;;;;5086937;28;20289;-64
2023/01/29 00:27:06;;;;;;;0.30;0.30;;;;;;;;;;5075428;28;20255;-64
2023/01/29 00:29:33;;;;;;;0.53;0.53;;;;;;;;;;5086824;28;20270;-64
2023/01/29 00:31:59;;;;;;;0.30;0.30;;;;;;;;;;5075116;28;20313;-64
2023/01/29 00:34:26;;;;;;;0.30;0.30;;;;;;;;;;5086755;28;20206;-64
2023/01/29 00:37:03;;;;;;;4.63;4.33;;;;;;;;;;5075349;28;20301;-64
2023/01/29 00:39:37;;;;;;;0.30;0.30;;;;;;;;;;5086332;28;20196;-64
2023/01/29 00:44:57;;;;;;;0.30;0.30;;;;;;;;;;5086690;28;20250;-63
2023/01/29 00:47:36;;;;;;;0.30;0.30;;;;;;;;;;5075146;28;20310;-66
2023/01/29 00:50:02;;;;;;;0.33;0.33;;;;;;;;;;5086776;28;20403;-64
2023/01/29 00:52:30;;;;;;;0.30;0.30;;;;;;;;;;5074981;28;20310;-63
2023/01/29 00:54:57;;;;;;;0.40;0.40;;;;;;;;;;5086252;28;20201;-64
2023/01/29 00:57:24;;;;;;;0.30;0.30;;;;;;;;;;5074820;28;20268;-65
2023/01/29 00:59:51;;;;;;;0.40;0.40;;;;;;;;;;5086104;28;20203;-63
2023/01/29 01:05:02;;;;;;;0.40;0.40;;;;;;;;;;5085563;28;20540;-65
2023/01/29 01:07:30;;;;;;;0.30;0.30;;;;;;;;;;5074460;28;20308;-64
2023/01/29 01:12:40;;;;;;;0.37;0.37;;;;;;;;;;5058193;28;20210;-63
2023/01/29 01:15:07;;;;;;;0.30;0.30;;;;;;;;;;5085743;28;20270;-64
2023/01/29 01:17:34;;;;;;;0.30;0.30;;;;;;;;;;5074391;28;20262;-64
2023/01/29 01:20:00;;;;;;;2.83;2.73;;;;;;;;;;5086064;28;20225;-63
2023/01/29 01:22:27;;;;;;;0.30;0.30;;;;;;;;;;5074494;28;20420;-64
2023/01/29 01:24:55;;;;;;;0.30;0.30;;;;;;;;;;5085492;28;20316;-64
2023/01/29 01:27:21;;;;;;;0.33;0.33;;;;;;;;;;5074484;28;20239;-64
2023/01/29 01:29:47;;;;;;;0.30;0.30;;;;;;;;;;5085854;28;20203;-64
2023/01/29 01:32:14;;;;;;;0.40;0.40;;;;;;;;;;5073961;28;20259;-64
2023/01/29 01:34:41;;;;;;;0.30;0.30;;;;;;;;;;5085381;28;20203;-65
2023/01/29 01:37:07;;;;;;;0.40;0.40;;;;;;;;;;5074159;28;20463;-66
2023/01/29 01:39:33;;;;;;;0.37;0.37;;;;;;;;;;5085592;28;20386;-64
2023/01/29 01:42:01;;;;;;;0.30;0.30;;;;;;;;;;5073975;28;20251;-64
2023/01/29 01:44:46;;;;;;;0.40;0.40;;;;;;;;;;5085322;28;20554;-64
2023/01/29 01:47:14;;;;;;;0.40;0.40;;;;;;;;;;5073962;28;20262;-65
2023/01/29 01:49:41;;;;;;;0.40;0.40;;;;;;;;;;5085391;28;20412;-64
2023/01/29 01:52:08;;;;;;;0.30;0.30;;;;;;;;;;5073834;28;20502;-64
2023/01/29 01:54:34;;;;;;;0.30;0.30;;;;;;;;;;5084991;28;20230;-64
2023/01/29 01:57:08;;;;;;;0.30;0.30;;;;;;;;;;5073799;28;20372;-64
2023/01/29 01:59:35;;;;;;;0.30;0.30;;;;;;;;;;5084861;28;20401;-65
2023/01/29 02:10:15;;;;;;;0.40;0.40;;;;;;;;;;5074412;28;20205;-65
2023/01/29 02:12:43;;;;;;;0.40;0.40;;;;;;;;;;5083774;28;20230;-64
2023/01/29 02:15:10;;;;;;;0.40;0.40;;;;;;;;;;5081044;28;20199;-65
2023/01/29 02:17:37;;;;;;;0.40;0.40;;;;;;;;;;5083411;28;20238;-64
2023/01/29 02:20:07;;;;;;;0.40;0.40;;;;;;;;;;5084710;28;20235;-64
2023/01/29 02:22:46;;;;;;;0.60;0.60;;;;;;;;;;5073755;28;20251;-64
2023/01/29 02:25:23;;;;;;;0.40;0.40;;;;;;;;;;5074261;28;20594;-65
2023/01/29 02:28:10;;;;;;;0.40;0.40;;;;;;;;;;5083581;28;20199;-64
2023/01/29 02:30:40;;;;;;;0.30;0.30;;;;;;;;;;5068404;28;20251;-64
2023/01/29 02:33:11;;;;;;;0.50;0.50;;;;;;;;;;5083614;28;20199;-63
2023/01/29 02:35:41;;;;;;;0.30;0.30;;;;;;;;;;5073869;28;20439;-64
2023/01/29 02:38:10;;;;;;;0.40;0.40;;;;;;;;;;5083320;28;20259;-63
2023/01/29 02:40:40;;;;;;;0.50;0.50;;;;;;;;;;5073791;28;20269;-63
2023/01/29 02:43:09;;;;;;;0.40;0.40;;;;;;;;;;5083544;28;20203;-63
2023/01/29 02:45:43;;;;;;;0.40;0.40;;;;;;;;;;5073526;28;20302;-64
2023/01/29 02:48:12;;;;;;;4.00;3.80;;;;;;;;;;5083224;28;20223;-63
2023/01/29 02:50:41;;;;;;;0.40;0.40;;;;;;;;;;5073296;28;20258;-64
2023/01/29 02:53:12;;;;;;;0.40;0.40;;;;;;;;;;5083083;28;20259;-64
2023/01/29 02:55:42;;;;;;;0.40;0.40;;;;;;;;;;5073394;28;20239;-63
2023/01/29 02:58:11;;;;;;;0.40;0.40;;;;;;;;;;5083086;28;20191;-63
2023/01/29 03:00:41;;;;;;;0.40;0.40;;;;;;;;;;5073112;28;20277;-63
2023/01/29 03:03:10;;;;;;;0.40;0.40;;;;;;;;;;5083278;28;20259;-64
2023/01/29 03:05:43;;;;;;;0.40;0.40;;;;;;;;;;5073220;28;20358;-63
2023/01/29 03:08:11;;;;;;;5.03;4.63;;;;;;;;;;5083177;28;20502;-64
2023/01/29 03:10:39;;;;;;;0.40;0.40;;;;;;;;;;5072953;28;20239;-64
2023/01/29 03:13:07;;;;;;;0.40;0.40;;;;;;;;;;5083072;28;20549;-64
2023/01/29 03:15:37;;;;;;;0.40;0.40;;;;;;;;;;5073225;28;20385;-64
2023/01/29 03:18:08;;;;;;;1.33;1.33;;;;;;;;;;5083063;28;20394;-63
2023/01/29 03:20:37;;;;;;;0.30;0.30;;;;;;;;;;5073272;28;20245;-64
2023/01/29 03:23:06;;;;;;;0.40;0.40;;;;;;;;;;5082692;28;20210;-64
2023/01/29 03:33:52;;;;;;;0.73;0.73;;;;;;;;;;5083103;28;20267;-64
2023/01/29 03:36:21;;;;;;;0.40;0.40;;;;;;;;;;5072394;28;20285;-64
2023/01/29 03:38:47;;;;;;;0.40;0.40;;;;;;;;;;5082933;28;20207;-65
2023/01/29 03:41:16;;;;;;;0.40;0.40;;;;;;;;;;5072333;28;20263;-64
2023/01/29 03:43:48;;;;;;;0.40;0.40;;;;;;;;;;5083103;28;20203;-64
2023/01/29 03:46:17;;;;;;;0.40;0.40;;;;;;;;;;5072733;28;20341;-64
2023/01/29 03:48:49;;;;;;;0.40;0.40;;;;;;;;;;5083038;28;20541;-64
2023/01/29 03:51:22;;;;;;;0.40;0.40;;;;;;;;;;5072437;28;20270;-64
2023/01/29 03:53:51;;;;;;;0.40;0.40;;;;;;;;;;5083176;28;20195;-64
2023/01/29 03:56:22;;;;;;;0.40;0.40;;;;;;;;;;5072477;28;20570;-64
2023/01/29 03:58:55;;;;;;;0.40;0.40;;;;;;;;;;5083145;28;20429;-65
2023/01/29 04:01:25;;;;;;;0.40;0.40;;;;;;;;;;5072407;28;20540;-64
2023/01/29 04:03:53;;;;;;;0.40;0.40;;;;;;;;;;5082770;28;20210;-64
2023/01/29 04:06:23;;;;;;;2.40;2.30;;;;;;;;;;5072048;28;20239;-64
2023/01/29 04:08:53;;;;;;;0.40;0.40;;;;;;;;;;5082613;28;20274;-64
2023/01/29 04:11:20;;;;;;;0.40;0.40;;;;;;;;;;5072222;28;20302;-64
2023/01/29 04:13:47;;;;;;;0.40;0.40;;;;;;;;;;5082603;28;20342;-64
2023/01/29 04:16:17;;;;;;;0.40;0.40;;;;;;;;;;5072199;28;20315;-64
2023/01/29 04:18:44;;;;;;;0.73;0.73;;;;;;;;;;5082730;28;20238;-64
2023/01/29 04:21:11;;;;;;;0.40;0.40;;;;;;;;;;5072232;28;20574;-64
2023/01/29 04:23:38;;;;;;;0.40;0.40;;;;;;;;;;5082370;28;20241;-64
2023/01/29 04:26:20;;;;;;;0.30;0.30;;;;;;;;;;5072182;28;20279;-64
2023/01/29 04:28:54;;;;;;;0.40;0.40;;;;;;;;;;5082446;28;20201;-63
2023/01/29 04:31:23;;;;;;;0.40;0.40;;;;;;;;;;5071892;28;20238;-63
2023/01/29 04:33:53;;;;;;;0.40;0.40;;;;;;;;;;5082992;28;20282;-63
2023/01/29 04:36:26;;;;;;;0.40;0.40;;;;;;;;;;5071748;28;20246;-62
2023/01/29 04:38:58;;;;;;;0.40;0.40;;;;;;;;;;5083348;28;20192;-63
2023/01/29 04:41:29;;;;;;;0.40;0.40;;;;;;;;;;5075495;28;20309;-63
2023/01/29 04:43:59;;;;;;;0.60;0.60;;;;;;;;;;5086316;28;20192;-64
2023/01/29 04:46:27;;;;;;;0.40;0.40;;;;;;;;;;5075311;28;20243;-63
2023/01/29 04:49:00;;;;;;;0.40;0.40;;;;;;;;;;5086115;28;20237;-64
2023/01/29 04:51:32;;;;;;;0.40;0.40;;;;;;;;;;5075363;28;20239;-63
2023/01/29 04:54:07;;;;;;;0.43;0.43;;;;;;;;;;5085801;28;20282;-64
2023/01/29 04:56:36;;;;;;;0.40;0.40;;;;;;;;;;5075167;28;20321;-63
2023/01/29 04:59:04;;;;;;;0.30;0.30;;;;;;;;;;5085702;28;20274;-65
2023/01/29 05:01:31;;;;;;;0.93;0.93;;;;;;;;;;5074666;28;20253;-63
2023/01/29 05:04:00;;;;;;;0.43;0.43;;;;;;;;;;5085451;28;20207;-62
2023/01/29 05:06:26;;;;;;;0.40;0.40;;;;;;;;;;5074692;28;20309;-63
2023/01/29 05:08:54;;;;;;;0.40;0.40;;;;;;;;;;5085822;28;20242;-63
2023/01/29 05:11:23;;;;;;;0.37;0.37;;;;;;;;;;5074810;28;20239;-63
2023/01/29 05:13:49;;;;;;;0.40;0.40;;;;;;;;;;5085417;28;20234;-63
2023/01/29 05:16:19;;;;;;;0.40;0.40;;;;;;;;;;5074778;28;20246;-63
2023/01/29 05:18:45;;;;;;;0.40;0.40;;;;;;;;;;5085527;28;20393;-63
2023/01/29 05:21:12;;;;;;;0.40;0.40;;;;;;;;;;5074907;28;20577;-64
2023/01/29 05:23:38;;;;;;;0.40;0.40;;;;;;;;;;5085327;28;20374;-64
2023/01/29 05:26:05;;;;;;;1.00;1.00;;;;;;;;;;5074661;28;20246;-64
2023/01/29 05:28:32;;;;;;;0.70;0.70;;;;;;;;;;5085180;28;20460;-63
2023/01/29 05:30:58;;;;;;;0.40;0.40;;;;;;;;;;5074458;28;20314;-63
2023/01/29 05:33:25;;;;;;;0.40;0.40;;;;;;;;;;5084717;28;20274;-63
2023/01/29 05:35:52;;;;;;;0.33;0.33;;;;;;;;;;5074749;28;20506;-64
2023/01/29 05:38:19;;;;;;;0.40;0.40;;;;;;;;;;5084962;28;20475;-64
2023/01/29 05:40:45;;;;;;;0.50;0.50;;;;;;;;;;5074519;28;20258;-64
2023/01/29 05:43:15;;;;;;;0.40;0.40;;;;;;;;;;5084408;28;20242;-64
2023/01/29 05:45:43;;;;;;;0.87;0.87;;;;;;;;;;5074412;28;20310;-64
2023/01/29 05:48:09;;;;;;;1.53;1.53;;;;;;;;;;5084542;28;20198;-65
2023/01/29 05:50:36;;;;;;;0.60;0.60;;;;;;;;;;5074380;28;20270;-64
2023/01/29 05:53:02;;;;;;;0.70;0.70;;;;;;;;;;5084405;28;20258;-64
2023/01/29 05:55:29;;;;;;;0.40;0.40;;;;;;;;;;5074308;28;20212;-64
2023/01/29 05:57:55;;;;;;;0.40;0.40;;;;;;;;;;5083950;28;20211;-64
2023/01/29 06:00:22;;;;;;;0.40;0.40;;;;;;;;;;5074659;28;20204;-64
2023/01/29 06:02:50;;;;;;;0.63;0.63;;;;;;;;;;5084014;28;20278;-64
2023/01/29 06:05:16;;;;;;;0.40;0.40;;;;;;;;;;5074508;28;20254;-64
2023/01/29 06:07:44;;;;;;;1.13;1.07;;;;;;;;;;5083921;28;20321;-64
2023/01/29 06:10:11;;;;;;;0.40;0.40;;;;;;;;;;5084629;28;20209;-64
2023/01/29 06:12:37;;;;;;;1.00;1.00;;;;;;;;;;5056777;28;20219;-63
2023/01/29 06:15:04;;;;;;;0.63;0.63;;;;;;;;;;5084808;28;20242;-64
2023/01/29 06:17:30;;;;;;;0.40;0.40;;;;;;;;;;5073219;28;20239;-64
2023/01/29 06:19:58;;;;;;;0.40;0.40;;;;;;;;;;5084412;28;20203;-63
2023/01/29 06:22:25;;;;;;;0.40;0.40;;;;;;;;;;5073118;28;20238;-63
2023/01/29 06:24:51;;;;;;;0.40;0.40;;;;;;;;;;5084593;28;20235;-63
2023/01/29 06:27:17;;;;;;;0.40;0.40;;;;;;;;;;5073040;28;20246;-63
2023/01/29 06:29:44;;;;;;;0.40;0.40;;;;;;;;;;5084560;28;20212;-63
2023/01/29 06:32:10;;;;;;;0.60;0.60;;;;;;;;;;5072523;28;20369;-63
2023/01/29 06:34:36;;;;;;;0.40;0.40;;;;;;;;;;5084028;28;20209;-63
2023/01/29 06:37:04;;;;;;;0.40;0.40;;;;;;;;;;5073039;28;20242;-64
2023/01/29 06:39:30;;;;;;;0.40;0.40;;;;;;;;;;5083882;28;20238;-64
2023/01/29 06:41:57;;;;;;;0.40;0.40;;;;;;;;;;5072959;28;20584;-63
2023/01/29 06:44:23;;;;;;;0.40;0.40;;;;;;;;;;5084028;28;20269;-66
2023/01/29 06:46:49;;;;;;;0.40;0.40;;;;;;;;;;5072805;28;20311;-64
2023/01/29 06:49:16;;;;;;;0.47;0.47;;;;;;;;;;5083717;28;20230;-63
2023/01/29 06:51:42;;;;;;;0.33;0.33;;;;;;;;;;5072673;28;20243;-64
2023/01/29 06:54:10;;;;;;;0.40;0.40;;;;;;;;;;5083528;28;20274;-64
2023/01/29 06:56:37;;;;;;;1.20;0.93;;;;;;;;;;5072906;28;20310;-65
2023/01/29 06:59:03;;;;;;;0.40;0.40;;;;;;;;;;5083773;28;20270;-65
2023/01/29 07:01:30;;;;;;;0.40;0.40;;;;;;;;;;5072280;28;20305;-65
2023/01/29 07:03:56;;;;;;;0.80;0.80;;;;;;;;;;5083736;28;20278;-65
2023/01/29 07:06:27;;;;;;;0.40;0.40;;;;;;;;;;5072891;28;20298;-64
2023/01/29 07:08:53;;;;;;;0.40;0.40;;;;;;;;;;5083512;28;20203;-64
2023/01/29 07:11:23;;;;;;;0.30;0.30;;;;;;;;;;5072727;28;20315;-64
2023/01/29 07:13:50;;;;;;;0.30;0.30;;;;;;;;;;5083172;28;20282;-64
2023/01/29 07:16:16;;;;;;;0.30;0.30;;;;;;;;;;5072712;28;20461;-65
2023/01/29 07:18:42;;;;;;;0.40;0.40;;;;;;;;;;5082902;28;20199;-65
2023/01/29 07:21:09;;;;;;;0.40;0.40;;;;;;;;;;5072799;28;20239;-64
2023/01/29 07:23:35;;;;;;;0.40;0.40;;;;;;;;;;5082900;28;20242;-64
2023/01/29 07:26:02;;;;;;;0.30;0.30;;;;;;;;;;5072696;28;20230;-64
2023/01/29 07:28:30;;;;;;;0.40;0.40;;;;;;;;;;5083058;28;20278;-65
2023/01/29 07:30:57;;;;;;;0.40;0.40;;;;;;;;;;5072443;28;20255;-65
2023/01/29 07:33:24;;;;;;;0.50;0.50;;;;;;;;;;5082983;28;20250;-65
2023/01/29 07:35:50;;;;;;;2.40;2.20;;;;;;;;;;5072815;28;20420;-64
2023/01/29 07:38:16;;;;;;;0.40;0.40;;;;;;;;;;5082875;28;20274;-65
2023/01/29 07:40:43;;;;;;;0.40;0.40;;;;;;;;;;5072898;28;20255;-65
2023/01/29 07:43:09;;;;;;;0.60;0.60;;;;;;;;;;5082770;28;20242;-65
2023/01/29 07:45:38;;;;;;;0.40;0.40;;;;;;;;;;5072750;28;20239;-64
2023/01/29 07:48:05;;;;;;;0.30;0.30;;;;;;;;;;5082668;28;20561;-64
2023/01/29 07:50:32;;;;;;;0.30;0.30;;;;;;;;;;5072900;28;20619;-65
2023/01/29 07:52:58;;;;;;;0.30;0.30;;;;;;;;;;5082349;28;20258;-65
2023/01/29 07:55:24;;;;;;;0.30;0.30;;;;;;;;;;5072950;28;20234;-65
2023/01/29 07:57:55;;;;;;;0.87;0.87;;;;;;;;;;5082385;28;20203;-64
2023/01/29 08:00:21;;;;;;;0.30;0.30;;;;;;;;;;5073011;28;20258;-65
2023/01/29 08:02:49;;;;;;;0.53;0.53;;;;;;;;;;5082312;28;20240;-65
2023/01/29 08:05:15;;;;;;;0.33;0.33;;;;;;;;;;5072667;28;20274;-65
2023/01/29 08:07:42;;;;;;;0.40;0.40;;;;;;;;;;5081822;28;20232;-63
2023/01/29 08:10:09;;;;;;;1.83;1.60;;;;;;;;;;5083311;28;20243;-64
2023/01/29 08:12:35;;;;;;;0.30;0.30;;;;;;;;;;5071797;28;20239;-64
2023/01/29 08:15:01;;;;;;;0.40;0.40;;;;;;;;;;5085799;28;20239;-63
2023/01/29 08:17:28;;;;;;;0.40;0.40;;;;;;;;;;5075585;28;20234;-65
2023/01/29 08:19:56;;;;;;;0.30;0.30;;;;;;;;;;5087090;28;20530;-68
2023/01/29 08:22:22;;;;;;;0.30;0.30;;;;;;;;;;5075518;28;20243;-65
2023/01/29 08:24:48;;;;;;;0.70;0.70;;;;;;;;;;5086526;28;20249;-65
2023/01/29 08:27:15;;;;;;;1.40;1.40;;;;;;;;;;5075373;28;20282;-64
2023/01/29 08:29:41;;;;;;;0.30;0.30;;;;;;;;;;5086579;28;20235;-65
2023/01/29 08:32:09;;;;;;;0.30;0.30;;;;;;;;;;5074970;28;20259;-64
2023/01/29 08:34:35;;;;;;;0.40;0.40;;;;;;;;;;5086377;28;20205;-64
2023/01/29 08:37:03;;;;;;;0.40;0.40;;;;;;;;;;5075149;28;20311;-64
2023/01/29 08:39:29;;;;;;;0.87;0.87;;;;;;;;;;5086403;28;20245;-64
2023/01/29 08:41:56;;;;;;;0.40;0.40;;;;;;;;;;5075157;28;20237;-64
2023/01/29 08:44:22;;;;;;;1.07;0.93;;;;;;;;;;5086532;28;20453;-64
2023/01/29 08:46:49;;;;;;;0.50;0.50;;;;;;;;;;5074991;28;20313;-65
2023/01/29 08:49:15;;;;;;;0.30;0.30;;;;;;;;;;5086323;28;20233;-65
2023/01/29 08:51:41;;;;;;;0.30;0.30;;;;;;;;;;5075138;28;20250;-65
2023/01/29 08:54:09;;;;;;;0.30;0.30;;;;;;;;;;5086134;28;20203;-64
2023/01/29 08:56:35;;;;;;;0.30;0.30;;;;;;;;;;5075002;28;20238;-65
2023/01/29 08:59:02;;;;;;;0.37;0.37;;;;;;;;;;5085774;28;20279;-65
2023/01/29 09:01:28;;;;;;;0.80;0.80;;;;;;;;;;5075090;28;20260;-65
2023/01/29 09:03:54;;;;;;;1.93;1.83;;;;;;;;;;5085935;28;20290;-65
2023/01/29 09:06:21;;;;;;;1.30;0.93;;;;;;;;;;5074886;28;20258;-64
2023/01/29 09:08:48;;;;;;;0.83;0.83;;;;;;;;;;5085733;28;20439;-64
2023/01/29 09:11:16;;;;;;;0.80;0.80;;;;;;;;;;5075123;28;20243;-65
2023/01/29 09:13:42;;;;;;;0.30;0.30;;;;;;;;;;5085601;28;20235;-65
2023/01/29 09:16:09;;;;;;;0.37;0.37;;;;;;;;;;5074903;28;20265;-65
2023/01/29 09:18:35;;;;;;;0.40;0.40;;;;;;;;;;5085432;28;20242;-64
2023/01/29 09:21:02;;;;;;;1.33;1.33;;;;;;;;;;5074804;28;20242;-65
2023/01/29 09:23:29;;;;;;;0.33;0.33;;;;;;;;;;5085252;28;20203;-64
2023/01/29 09:25:55;;;;;;;0.30;0.30;;;;;;;;;;5074453;28;20297;-64
2023/01/29 09:28:23;;;;;;;0.30;0.30;;;;;;;;;;5085161;28;20208;-64
2023/01/29 09:30:49;;;;;;;1.80;1.70;;;;;;;;;;5074737;28;20496;-64
2023/01/29 09:33:16;;;;;;;2.00;1.93;;;;;;;;;;5084587;28;20227;-65
2023/01/29 09:35:44;;;;;;;0.30;0.30;;;;;;;;;;5074818;28;20248;-66
2023/01/29 09:38:11;;;;;;;0.30;0.30;;;;;;;;;;5084625;28;20196;-66
2023/01/29 09:40:41;;;;;;;0.97;0.97;;;;;;;;;;5074580;28;20246;-65
2023/01/29 09:43:12;;;;;;;0.40;0.40;;;;;;;;;;5084390;28;20191;-67
2023/01/29 09:45:43;;;;;;;0.47;0.47;;;;;;;;;;5074759;28;20266;-66
2023/01/29 09:48:11;;;;;;;0.30;0.30;;;;;;;;;;5084444;28;20411;-66
2023/01/29 09:50:39;;;;;;;0.33;0.33;;;;;;;;;;5074606;28;20243;-66
2023/01/29 09:53:11;;;;;;;0.70;0.70;;;;;;;;;;5084700;28;20245;-65
2023/01/29 09:55:39;;;;;;;0.93;0.93;;;;;;;;;;5074510;28;20462;-64
2023/01/29 09:58:11;;;;;;;0.30;0.30;;;;;;;;;;5084137;28;20199;-65
2023/01/29 10:00:40;;;;;;;0.60;0.60;;;;;;;;;;5074534;28;20304;-65
2023/01/29 10:03:15;;;;;;;0.30;0.30;;;;;;;;;;5084131;28;20235;-65
2023/01/29 10:05:47;;;;;;;0.40;0.40;;;;;;;;;;5074390;28;20259;-66
2023/01/29 10:08:27;;;;;;;0.33;0.33;;;;;;;;;;5084010;28;20285;-65
2023/01/29 10:10:59;;;;;;;0.40;0.40;;;;;;;;;;5074003;28;20234;-65
2023/01/29 10:13:29;;;;;;;0.30;0.30;;;;;;;;;;5084117;28;20220;-65
2023/01/29 10:16:03;;;;;;;0.30;0.30;;;;;;;;;;5073799;28;20241;-67
2023/01/29 10:18:50;;;;;;;1.70;1.70;;;;;;;;;;5083918;28;20224;-68
2023/01/29 10:21:25;;;;;;;0.63;0.63;;;;;;;;;;5073657;28;20246;-67
2023/01/29 10:23:54;;;;;;;0.90;0.90;;;;;;;;;;5084339;28;20269;-68
2023/01/29 10:26:23;;;;;;;0.47;0.47;;;;;;;;;;5073332;28;20252;-69
2023/01/29 10:28:51;;;;;;;0.40;0.40;;;;;;;;;;5084028;28;20274;-69
2023/01/29 10:31:19;;;;;;;0.30;0.30;;;;;;;;;;5073249;28;20302;-69
2023/01/29 10:33:49;;;;;;;0.30;0.30;;;;;;;;;;5084112;28;20246;-69
2023/01/29 10:36:17;;;;;;;0.30;0.30;;;;;;;;;;5072875;28;20239;-69
2023/01/29 10:38:45;;;;;;;0.63;0.60;;;;;;;;;;5083818;28;20239;-69
2023/01/29 10:41:17;;;;;;;0.30;0.30;;;;;;;;;;5073372;28;20690;-70
2023/01/29 10:43:51;;;;;;;0.30;0.30;;;;;;;;;;5083990;28;20491;-70
2023/01/29 10:46:23;;;;;;;0.70;0.70;;;;;;;;;;5073077;28;20303;-70
2023/01/29 10:48:59;;;;;;;0.40;0.40;;;;;;;;;;5083711;28;20262;-71
2023/01/29 10:51:34;;;;;;;0.30;0.30;;;;;;;;;;5073134;28;20242;-71
2023/01/29 10:54:07;;;;;;;0.30;0.30;;;;;;;;;;5083997;28;20482;-70
2023/01/29 10:56:42;;;;;;;0.50;0.50;;;;;;;;;;5072944;28;20322;-70
2023/01/29 10:59:13;;;;;;;0.50;0.50;;;;;;;;;;5083658;28;20263;-71
2023/01/29 11:01:40;;;;;;;1.40;1.37;;;;;;;;;;5072824;28;20310;-71
2023/01/29 11:04:09;;;;;;;0.40;0.40;;;;;;;;;;5083816;28;20251;-70
2023/01/29 11:06:36;;;;;;;0.50;0.50;;;;;;;;;;5072620;28;20589;-72
2023/01/29 11:09:05;;;;;;;0.30;0.30;;;;;;;;;;5083579;28;20228;-71
2023/01/29 11:11:33;;;;;;;0.87;0.87;;;;;;;;;;5072482;28;20312;-68
2023/01/29 11:14:01;;;;;;;0.30;0.30;;;;;;;;;;5083427;28;20505;-69
2023/01/29 11:16:32;;;;;;;0.30;0.30;;;;;;;;;;5072581;28;20488;-70
2023/01/29 11:19:00;;;;;;;0.30;0.30;;;;;;;;;;5083551;28;20199;-69
2023/01/29 11:21:29;;;;;;;1.13;1.13;;;;;;;;;;5072514;28;20258;-68
2023/01/29 11:24:05;;;;;;;0.30;0.30;;;;;;;;;;5083090;28;20274;-69
2023/01/29 11:26:34;;;;;;;0.77;0.77;;;;;;;;;;5072341;28;20240;-68
2023/01/29 11:29:00;;;;;;;1.00;0.80;;;;;;;;;;5083044;28;20213;-68
2023/01/29 11:31:28;;;;;;;0.30;0.30;;;;;;;;;;5072135;28;20590;-68
2023/01/29 11:34:02;;;;;;;0.30;0.30;;;;;;;;;;5083252;28;20273;-68
2023/01/29 11:36:38;;;;;;;0.37;0.37;;;;;;;;;;5072204;28;20306;-68
2023/01/29 11:39:14;;;;;;;1.67;1.57;;;;;;;;;;5083375;28;20195;-68
2023/01/29 11:41:44;;;;;;;0.30;0.30;;;;;;;;;;5072266;28;20310;-68
2023/01/29 11:44:21;;;;;;;0.60;0.60;;;;;;;;;;5083478;28;20521;-68
2023/01/29 11:46:47;;;;;;;0.60;0.60;;;;;;;;;;5072027;28;20307;-68
2023/01/29 11:49:21;;;;;;;0.30;0.30;;;;;;;;;;5086403;28;20336;-68
2023/01/29 11:51:52;;;;;;;0.50;0.50;;;;;;;;;;5076123;28;20368;-68
2023/01/29 11:54:19;;;;;;;0.20;0.20;;;;;;;;;;5087501;28;20192;-69
2023/01/29 11:56:46;;;;;;;0.27;0.27;;;;;;;;;;5076054;28;20286;-69
2023/01/29 11:59:24;;;;;;;0.50;0.50;;;;;;;;;;5086996;28;20246;-69
2023/01/29 12:01:50;;;;;;;2.33;2.23;;;;;;;;;;5075980;28;20459;-69
2023/01/29 12:04:19;;;;;;;2.63;2.00;;;;;;;;;;5087269;28;20271;-69
2023/01/29 12:06:49;;;;;;;0.53;0.53;;;;;;;;;;5075758;28;20317;-68
2023/01/29 12:09:18;;;;;;;0.30;0.30;;;;;;;;;;5086793;28;20205;-68
2023/01/29 12:11:44;;;;;;;0.50;0.50;;;;;;;;;;5075874;28;20271;-69
2023/01/29 12:14:23;;;;;;;0.80;0.77;;;;;;;;;;5086799;28;20212;-67
2023/01/29 12:16:52;;;;;;;0.30;0.30;;;;;;;;;;5075647;28;20241;-70
2023/01/29 12:19:24;;;;;;;0.83;0.83;;;;;;;;;;5086929;28;20455;-70
2023/01/29 12:21:52;;;;;;;1.73;1.63;;;;;;;;;;5075689;28;20241;-70
2023/01/29 12:24:28;;;;;;;0.20;0.20;;;;;;;;;;5086873;28;20247;-70
2023/01/29 12:26:58;;;;;;;0.30;0.30;;;;;;;;;;5075226;28;20564;-69
2023/01/29 12:29:31;;;;;;;0.50;0.50;;;;;;;;;;5086542;28;20232;-70
2023/01/29 12:32:01;;;;;;;0.30;0.30;;;;;;;;;;5074978;28;20247;-69
2023/01/29 12:34:33;;;;;;;1.40;1.17;;;;;;;;;;5086480;28;20193;-69
2023/01/29 12:37:03;;;;;;;0.30;0.30;;;;;;;;;;5075330;28;20242;-69
2023/01/29 12:39:32;;;;;;;0.70;0.70;;;;;;;;;;5086770;28;20450;-69
2023/01/29 12:42:02;;;;;;;0.20;0.20;;;;;;;;;;5075208;28;20249;-69
2023/01/29 12:44:32;;;;;;;0.30;0.30;;;;;;;;;;5086647;28;20233;-69
2023/01/29 12:47:00;;;;;;;1.23;0.73;;;;;;;;;;5075116;28;20316;-70
2023/01/29 12:49:28;;;;;;;0.37;0.37;;;;;;;;;;5086197;28;20273;-69
2023/01/29 12:51:57;;;;;;;0.77;0.77;;;;;;;;;;5075028;28;20302;-72
2023/01/29 12:54:28;;;;;;;0.20;0.20;;;;;;;;;;5086342;28;20205;-71
2023/01/29 12:56:59;;;;;;;0.30;0.30;;;;;;;;;;5075004;28;20292;-72
2023/01/29 12:59:28;;;;;;;0.33;0.33;;;;;;;;;;5085322;28;20228;-72
2023/01/29 13:01:56;;;;;;;0.27;0.27;;;;;;;;;;5074894;28;20551;-72
2023/01/29 13:04:29;;;;;;;0.20;0.20;;;;;;;;;;5085881;28;20232;-72
2023/01/29 13:06:59;;;;;;;0.30;0.30;;;;;;;;;;5074878;28;20500;-72
2023/01/29 13:09:27;;;;;;;0.73;0.73;;;;;;;;;;5086196;28;20200;-70
2023/01/29 13:11:56;;;;;;;0.30;0.30;;;;;;;;;;5074707;28;20248;-71
2023/01/29 13:14:27;;;;;;;1.10;1.00;;;;;;;;;;5085603;28;20208;-71
2023/01/29 13:16:55;;;;;;;0.23;0.23;;;;;;;;;;5074700;28;20246;-71
2023/01/29 13:19:26;;;;;;;0.30;0.30;;;;;;;;;;5085945;28;20271;-72
2023/01/29 13:21:53;;;;;;;0.30;0.30;;;;;;;;;;5074645;28;20252;-72
2023/01/29 13:24:21;;;;;;;1.10;1.10;;;;;;;;;;5085813;28;20209;-71
2023/01/29 13:26:48;;;;;;;0.20;0.20;;;;;;;;;;5074499;28;20266;-73
2023/01/29 13:29:21;;;;;;;0.60;0.60;;;;;;;;;;5085322;28;20557;-71
2023/01/29 13:31:49;;;;;;;0.50;0.50;;;;;;;;;;5073991;28;20319;-72
2023/01/29 13:34:16;;;;;;;0.30;0.30;;;;;;;;;;5085293;28;20272;-72
2023/01/29 13:36:44;;;;;;;0.20;0.20;;;;;;;;;;5074368;28;20239;-71
2023/01/29 13:39:19;;;;;;;0.30;0.30;;;;;;;;;;5085426;28;20271;-71
2023/01/29 13:41:45;;;;;;;0.80;0.80;;;;;;;;;;5074628;28;20261;-71
2023/01/29 13:44:20;;;;;;;0.30;0.30;;;;;;;;;;5085129;28;20216;-71
2023/01/29 13:46:51;;;;;;;2.03;1.93;;;;;;;;;;5074128;28;20251;-72
2023/01/29 13:49:25;;;;;;;0.27;0.27;;;;;;;;;;5085009;28;20459;-68
2023/01/29 13:51:51;;;;;;;0.20;0.20;;;;;;;;;;5074002;28;20445;-69
2023/01/29 13:54:20;;;;;;;0.30;0.30;;;;;;;;;;5085061;28;20289;-68
2023/01/29 13:56:58;;;;;;;0.20;0.20;;;;;;;;;;5073824;28;20313;-68
2023/01/29 13:59:44;;;;;;;0.90;0.67;;;;;;;;;;5084817;28;20196;-68
2023/01/29 14:02:23;;;;;;;0.60;0.60;;;;;;;;;;5073482;28;20297;-67
2023/01/29 14:04:49;;;;;;;0.30;0.30;;;;;;;;;;5084911;28;20532;-67
2023/01/29 14:07:30;;;;;;;0.30;0.30;;;;;;;;;;5073561;28;20276;-68
2023/01/29 14:10:06;;;;;;;1.60;1.50;;;;;;;;;;5083972;28;20248;-68
2023/01/29 14:12:34;;;;;;;0.30;0.30;;;;;;;;;;5055714;28;20271;-67
2023/01/29 14:15:03;;;;;;;0.53;0.53;;;;;;;;;;5084951;28;20368;-68
2023/01/29 14:17:31;;;;;;;0.20;0.20;;;;;;;;;;5073305;28;20436;-68
2023/01/29 14:20:00;;;;;;;0.40;0.40;;;;;;;;;;5084819;28;20417;-68
2023/01/29 14:22:27;;;;;;;0.30;0.30;;;;;;;;;;5073176;28;20247;-68
2023/01/29 14:24:55;;;;;;;2.17;1.97;;;;;;;;;;5084758;28;20236;-68
2023/01/29 14:27:24;;;;;;;1.80;1.80;;;;;;;;;;5073258;28;20255;-67
2023/01/29 14:29:56;;;;;;;0.37;0.37;;;;;;;;;;5084345;28;20209;-67
2023/01/29 14:32:23;;;;;;;0.30;0.30;;;;;;;;;;5072781;28;20513;-67
2023/01/29 14:34:54;;;;;;;0.73;0.73;;;;;;;;;;5084269;28;20211;-67
2023/01/29 14:37:22;;;;;;;3.37;1.77;;;;;;;;;;5073045;28;20311;-68
2023/01/29 14:39:49;;;;;;;0.37;0.37;;;;;;;;;;5084186;28;20246;-67
2023/01/29 14:42:22;;;;;;;0.33;0.33;;;;;;;;;;5072965;28;20244;-68
2023/01/29 14:44:59;;;;;;;0.30;0.30;;;;;;;;;;5084360;28;20260;-68
2023/01/29 14:47:43;;;;;;;0.30;0.30;;;;;;;;;;5072892;28;20306;-66
2023/01/29 14:50:24;;;;;;;0.43;0.43;;;;;;;;;;5043051;28;20405;-65
2023/01/29 14:52:53;;;;;;;0.30;0.30;;;;;;;;;;5082341;28;20246;-66
2023/01/29 14:55:25;;;;;;;0.97;0.97;;;;;;;;;;5073674;28;20216;-66
2023/01/29 14:57:52;;;;;;;0.30;0.30;;;;;;;;;;5083277;28;20232;-66
2023/01/29 15:00:22;;;;;;;0.30;0.30;;;;;;;;;;5073552;28;20203;-66
2023/01/29 15:02:49;;;;;;;2.97;2.87;;;;;;;;;;5083101;28;20457;-67
2023/01/29 15:05:18;;;;;;;0.30;0.30;;;;;;;;;;5073580;28;20248;-66
2023/01/29 15:07:48;;;;;;;0.30;0.30;;;;;;;;;;5082918;28;20213;-66
2023/01/29 15:10:16;;;;;;;0.43;0.43;;;;;;;;;;5073334;28;20266;-69
2023/01/29 15:12:47;;;;;;;0.30;0.30;;;;;;;;;;5082852;28;20456;-69
2023/01/29 15:15:16;;;;;;;0.30;0.30;;;;;;;;;;5073141;28;20327;-69
2023/01/29 15:17:48;;;;;;;0.30;0.30;;;;;;;;;;5082849;28;20234;-69